createdAt,value
2022-11-30T00:03:03.389Z,27.67
2022-11-30T00:08:04.249Z,25.10
2022-11-30T00:13:05.560Z,25.67
2022-11-30T00:18:06.290Z,27.55
2022-11-30T00:23:09.306Z,28.02
2022-11-30T00:28:10.021Z,25.98
2022-11-30T00:33:11.185Z,27.25
2022-11-30T00:38:11.879Z,26.17
2022-11-30T00:43:12.716Z,26.50
2022-11-30T00:48:13.620Z,25.45
2022-11-30T00:53:14.756Z,25.40
2022-11-30T00:58:15.594Z,26.90
2022-11-30T01:03:16.832Z,25.48
2022-11-30T01:08:17.780Z,26.40
2022-11-30T01:13:18.845Z,26.33
2022-11-30T01:18:19.586Z,27.00
2022-11-30T01:23:20.326Z,26.33
2022-11-30T01:28:21.069Z,25.55
2022-11-30T01:33:22.135Z,27.37
2022-11-30T01:38:22.870Z,25.23
2022-11-30T01:43:41.667Z,25.08
2022-11-30T01:48:42.418Z,26.60
2022-11-30T01:53:43.202Z,24.58
2022-11-30T01:58:43.975Z,27.15
2022-11-30T02:04:13.189Z,26.87
2022-11-30T02:09:17.439Z,24.90
2022-11-30T02:14:46.078Z,27.15
2022-11-30T02:21:59.210Z,24.42
2022-11-30T02:27:37.333Z,25.35
2022-11-30T02:32:53.533Z,25.60
2022-11-30T02:37:56.595Z,24.15
2022-11-30T02:43:00.974Z,25.45
2022-11-30T02:48:08.668Z,27.30
2022-11-30T02:53:09.731Z,25.42
2022-11-30T02:58:11.676Z,24.85
2022-11-30T03:03:12.439Z,22.58
2022-11-30T03:08:13.208Z,24.02
2022-11-30T03:13:14.232Z,22.17
2022-11-30T03:18:15.057Z,21.52
2022-11-30T03:23:15.806Z,19.77
2022-11-30T03:28:16.547Z,19.40
2022-11-30T03:33:17.368Z,18.55
2022-11-30T03:38:18.286Z,18.62
2022-11-30T03:43:19.018Z,16.10
2022-11-30T03:48:19.860Z,17.92
2022-11-30T03:53:22.308Z,16.02
2022-11-30T03:58:24.067Z,16.37
2022-11-30T04:03:24.816Z,14.52
2022-11-30T04:08:26.178Z,14.85
2022-11-30T04:13:28.687Z,13.62
2022-11-30T04:18:31.978Z,14.38
2022-11-30T04:23:35.641Z,14.90
2022-11-30T04:28:36.351Z,14.57
2022-11-30T04:33:37.139Z,15.30
2022-11-30T04:38:38.127Z,14.98
2022-11-30T04:43:39.211Z,14.13
2022-11-30T04:48:40.036Z,15.75
2022-11-30T04:53:40.793Z,16.65
2022-11-30T04:58:41.507Z,15.63
2022-11-30T05:03:42.259Z,14.70
2022-11-30T05:08:42.980Z,14.70
2022-11-30T05:13:43.790Z,15.35
2022-11-30T05:18:44.684Z,14.82
2022-11-30T05:23:47.180Z,12.73
2022-11-30T05:28:48.117Z,14.60
2022-11-30T05:33:52.950Z,10.93
2022-11-30T05:38:53.789Z,9.35
2022-11-30T05:43:55.539Z,9.13
2022-11-30T05:48:56.344Z,8.15
2022-11-30T05:53:57.756Z,7.55
2022-11-30T05:58:58.666Z,7.18
2022-11-30T06:03:59.527Z,7.47
2022-11-30T06:09:00.278Z,6.78
2022-11-30T06:14:01.372Z,8.02
2022-11-30T06:19:02.852Z,7.45
2022-11-30T06:24:04.208Z,8.88
2022-11-30T06:29:05.100Z,9.15
2022-11-30T06:34:05.904Z,8.48
2022-11-30T06:39:08.442Z,9.57
2022-11-30T06:44:10.266Z,10.48
2022-11-30T06:49:11.322Z,10.43
2022-11-30T06:54:12.042Z,10.23
2022-11-30T06:59:12.801Z,10.30
2022-11-30T07:04:14.045Z,11.43
2022-11-30T07:09:15.163Z,10.13
2022-11-30T07:14:15.943Z,9.70
2022-11-30T07:19:16.872Z,9.10
2022-11-30T07:24:35.921Z,10.20
2022-11-30T07:29:36.783Z,9.80
2022-11-30T07:34:37.538Z,8.77
2022-11-30T07:39:38.344Z,9.05
2022-11-30T07:44:39.076Z,8.73
2022-11-30T07:49:40.092Z,9.35
2022-11-30T07:54:40.922Z,9.52
2022-11-30T07:59:41.661Z,8.20
2022-11-30T08:04:42.460Z,8.60
2022-11-30T08:09:44.432Z,9.63
2022-11-30T08:15:18.385Z,9.43
2022-11-30T08:20:21.583Z,9.15
2022-11-30T08:25:22.292Z,11.10
2022-11-30T08:30:26.463Z,11.38
2022-11-30T08:35:31.936Z,12.02
2022-11-30T08:40:32.706Z,13.90
2022-11-30T08:45:33.618Z,14.25
2022-11-30T08:50:34.838Z,13.70
2022-11-30T08:55:35.993Z,14.30
2022-11-30T09:00:36.723Z,13.95
2022-11-30T09:05:37.470Z,14.43
2022-11-30T09:10:38.194Z,14.65
2022-11-30T09:15:39.056Z,15.57
2022-11-30T09:20:40.012Z,14.45
2022-11-30T09:25:40.762Z,14.70
2022-11-30T09:30:41.531Z,13.43
2022-11-30T09:35:42.333Z,15.98
2022-11-30T09:40:43.199Z,14.23
2022-11-30T09:45:52.458Z,14.52
2022-11-30T09:50:55.661Z,13.68
2022-11-30T09:55:59.958Z,13.18
2022-11-30T10:01:06.645Z,12.88
2022-11-30T10:06:18.082Z,14.10
2022-11-30T10:11:40.917Z,14.60
2022-11-30T10:17:08.390Z,12.55
2022-11-30T10:22:46.706Z,13.50
2022-11-30T10:28:49.031Z,12.60
2022-11-30T10:33:53.633Z,13.00
2022-11-30T10:39:03.024Z,13.40
2022-11-30T10:44:17.073Z,12.60
2022-11-30T10:49:18.857Z,13.10
2022-11-30T10:54:21.932Z,13.38
2022-11-30T10:59:27.032Z,13.50
2022-11-30T11:04:27.918Z,12.93
2022-11-30T11:09:35.927Z,14.25
2022-11-30T11:14:38.449Z,11.73
2022-11-30T11:19:49.959Z,13.20
2022-11-30T11:25:36.464Z,16.00
2022-11-30T11:30:37.255Z,15.00
2022-11-30T11:35:45.446Z,16.40
2022-11-30T11:41:01.966Z,16.40
2022-11-30T11:46:13.501Z,16.08
2022-11-30T11:51:29.507Z,14.82
2022-11-30T11:56:36.165Z,15.30
2022-11-30T12:03:19.096Z,16.95
2022-11-30T12:08:37.649Z,15.75
2022-11-30T12:13:41.024Z,15.98
2022-11-30T12:18:53.210Z,17.75
2022-11-30T12:24:22.786Z,17.02
2022-11-30T12:30:33.557Z,15.18
2022-11-30T12:38:53.916Z,15.88
2022-11-30T12:45:36.602Z,16.45
2022-11-30T12:50:51.575Z,16.15
2022-11-30T12:56:21.934Z,17.50
2022-11-30T13:01:47.918Z,16.73
2022-11-30T13:07:04.123Z,18.17
2022-11-30T13:12:13.174Z,18.45
2022-11-30T13:17:18.664Z,16.55
2022-11-30T13:22:36.143Z,16.77
2022-11-30T13:27:48.868Z,16.87
2022-11-30T13:32:57.822Z,17.90
2022-11-30T13:38:36.199Z,18.77
2022-11-30T13:43:46.280Z,18.45
2022-11-30T13:48:47.683Z,18.02
2022-11-30T13:53:48.604Z,17.42
2022-11-30T14:01:01.177Z,15.85
2022-11-30T14:06:47.785Z,14.82
2022-11-30T14:11:48.874Z,16.70
2022-11-30T14:16:49.768Z,16.58
2022-11-30T14:21:51.407Z,15.13
2022-11-30T14:26:53.261Z,15.98
2022-11-30T14:32:02.462Z,16.80
2022-11-30T14:37:14.196Z,17.87
2022-11-30T14:42:21.127Z,16.92
2022-11-30T14:47:34.121Z,17.40
2022-11-30T14:56:21.789Z,16.87
2022-11-30T15:01:28.137Z,18.98
2022-11-30T15:06:31.420Z,20.90
2022-11-30T15:11:32.257Z,21.23
2022-11-30T15:16:33.331Z,20.40
2022-11-30T15:21:34.130Z,22.67
2022-11-30T15:27:02.079Z,20.40
2022-11-30T15:32:15.462Z,17.27
2022-11-30T15:37:17.446Z,16.52
2022-11-30T15:42:21.637Z,14.43
2022-11-30T15:47:37.331Z,16.77
2022-11-30T15:52:44.217Z,16.98
2022-11-30T15:58:01.909Z,19.02
2022-11-30T16:03:11.043Z,17.58
2022-11-30T16:08:17.161Z,18.60
2022-11-30T16:13:20.818Z,16.50
2022-11-30T16:18:27.269Z,14.82
2022-11-30T16:23:28.514Z,13.95
2022-11-30T16:28:29.289Z,16.92
2022-11-30T16:33:30.442Z,18.50
2022-11-30T16:38:31.829Z,17.70
2022-11-30T16:43:32.864Z,18.05
2022-11-30T16:48:35.000Z,18.42
2022-11-30T16:53:35.728Z,17.80
2022-11-30T16:58:36.995Z,18.00
2022-11-30T17:03:39.259Z,16.45
2022-11-30T17:08:41.176Z,17.50
2022-11-30T17:13:42.012Z,17.17
2022-11-30T17:18:43.089Z,18.05
2022-11-30T17:23:44.576Z,17.90
2022-11-30T17:28:45.541Z,19.52
2022-11-30T17:33:48.313Z,17.58
2022-11-30T17:38:49.868Z,19.20
2022-11-30T17:43:51.303Z,18.98
2022-11-30T17:48:52.075Z,18.90
2022-11-30T17:53:52.934Z,18.77
2022-11-30T17:58:53.811Z,19.62
2022-11-30T18:03:55.073Z,19.40
2022-11-30T18:08:56.933Z,16.05
2022-11-30T18:14:00.054Z,15.45
2022-11-30T18:19:02.464Z,16.58
2022-11-30T18:24:04.016Z,16.13
2022-11-30T18:29:06.038Z,16.73
2022-11-30T18:34:07.187Z,15.23
2022-11-30T18:39:08.233Z,15.18
2022-11-30T18:44:09.515Z,16.95
2022-11-30T18:49:10.359Z,17.60
2022-11-30T18:54:11.690Z,17.08
2022-11-30T18:59:13.772Z,16.15
2022-11-30T19:04:14.553Z,14.68
2022-11-30T19:09:15.498Z,14.27
2022-11-30T19:14:16.997Z,13.00
2022-11-30T19:19:18.109Z,13.52
2022-11-30T19:24:19.169Z,11.02
2022-11-30T19:29:19.995Z,12.32
2022-11-30T19:34:20.784Z,10.80
2022-11-30T19:39:21.522Z,14.00
2022-11-30T19:44:22.377Z,13.77
2022-11-30T19:49:23.200Z,12.10
2022-11-30T19:54:24.003Z,13.13
2022-11-30T19:59:24.911Z,14.13
2022-11-30T20:04:25.736Z,14.80
2022-11-30T20:09:26.506Z,11.60
2022-11-30T20:14:27.443Z,9.57
2022-11-30T20:19:28.186Z,8.98
2022-11-30T20:24:29.291Z,10.05
2022-11-30T20:29:30.017Z,9.63
2022-11-30T20:34:34.634Z,9.77
2022-11-30T20:39:39.985Z,9.15
2022-11-30T20:44:45.328Z,8.82
2022-11-30T20:49:46.621Z,9.10
2022-11-30T20:54:47.737Z,9.52
2022-11-30T20:59:48.718Z,9.35
2022-11-30T21:04:49.717Z,10.90
2022-11-30T21:09:51.061Z,11.00
2022-11-30T21:14:51.921Z,9.95
2022-11-30T21:19:52.648Z,10.13
2022-11-30T21:24:53.964Z,8.13
2022-11-30T21:29:54.678Z,6.30
2022-11-30T21:34:55.525Z,6.57
2022-11-30T21:39:56.274Z,5.90
2022-11-30T21:44:57.238Z,5.20
2022-11-30T21:49:58.919Z,5.50
2022-11-30T21:54:59.779Z,6.03
2022-11-30T22:00:01.214Z,6.45
2022-11-30T22:05:02.106Z,7.10
2022-11-30T22:10:03.203Z,6.50
2022-11-30T22:15:06.391Z,7.80
2022-11-30T22:20:08.116Z,7.93
2022-11-30T22:25:08.884Z,7.75
2022-11-30T22:30:11.022Z,10.00
2022-11-30T22:35:11.888Z,9.73
2022-11-30T22:40:13.550Z,9.00
2022-11-30T22:45:14.449Z,9.40
2022-11-30T22:50:15.413Z,9.70
2022-11-30T22:55:16.407Z,8.98
2022-11-30T23:00:17.703Z,9.57
2022-11-30T23:05:18.442Z,9.13
2022-11-30T23:10:19.200Z,7.95
2022-11-30T23:15:20.000Z,7.93
2022-11-30T23:20:21.742Z,7.45
2022-11-30T23:25:22.734Z,7.90
2022-11-30T23:30:23.907Z,7.65
2022-11-30T23:35:24.887Z,9.48
2022-11-30T23:40:25.673Z,12.65
2022-11-30T23:45:26.493Z,11.85
2022-11-30T23:50:27.268Z,11.80
2022-11-30T23:55:28.217Z,12.80
